Woodgate, New York
Current Conditions -  °F | °C
As of 12:53 AM on Wednesday 22 Oct 2014 (Local Time) from KRME Reporting Station
Overcast Overcast  
Wind Chill: 50°   Ceiling: 3400
Heat Index: 50°   Visibility: 10mi
Dew Point: 45°   Wind: 3mph
Humidity: 83%   Direction: 30°NNE
Pressure: 30.04"   Gusts: NA
Location:  43.52°N, 75.16°W
Report Text: KRME 220453Z AUTO 03003KT 10SM OVC034 10/07 A3004 RMK AO2 SLP172 T01000072 401220072
Loading
Personal Weather Stations






























Interactive Weather Map New forecast layout! Learn more

10-Day Weather Forecast

Advertisements
Track Severe Weather on mobile